Latest Weather Observations for Horsham

IDV60801

Issued at 7:32 pm EST Saturday 2 July 2016 (issued every 30 minutes, with the page automatically refreshed every 10 minutes)

About weather observations | Map of weather stations | Latest weather observations for VIC | Other Formats
Station Details ID: 079100 Name: HORSHAM AERODROME Lat: -36.67 Lon: 142.17 Height: 133.8 m
Data from the previous 72 hours. | See also: Recent months at Horsham
Date/Time
EST
Temp
°C
App
Temp
°C
Dew
Point
°C
Rel
Hum
%
Delta-T
°C
Wind Press
QNH
hPa
Press
MSL
hPa
Rain since
9am
mm
Dir  Spd
km/h
Gust
km/h
Spd
kts
Gust
kts
02/07:30pm 10.7 7.9 10.1 96 0.3 WNW 15 17 8 9 1026.7 1027.0 0.4
02/07:00pm 11.4 8.3 10.3 93 0.6 W 17 20 9 11 1026.5 1026.8 0.4
02/06:30pm 11.1 8.4 10.2 94 0.5 WNW 15 19 8 10 1026.4 1026.7 0.4
02/06:00pm 11.0 8.7 10.5 97 0.3 WNW 13 19 7 10 1026.2 1026.5 0.4
02/05:30pm 11.2 9.6 10.3 94 0.5 W 9 11 5 6 1026.0 1026.3 0.4
02/05:00pm 12.3 10.5 10.9 91 0.7 W 11 15 6 8 1025.9 1026.2 0.4
02/04:30pm 12.9 10.5 11.5 91 0.7 W 15 19 8 10 1025.9 1026.2 0.4
02/04:00pm 13.3 9.3 10.5 83 1.5 W 22 33 12 18 1025.9 1026.2 0.4
02/03:30pm 13.5 8.8 10.5 82 1.6 WNW 26 32 14 17 1025.8 1026.1 0.4
02/03:00pm 14.3 11.1 11.3 82 1.6 W 19 28 10 15 1025.8 1026.1 0.4
02/02:30pm 13.5 10.7 11.2 86 1.2 WSW 17 20 9 11 1025.8 1026.1 0.4
02/02:16pm 13.3 11.0 11.7 90 0.9 W 15 20 8 11 1025.9 1026.2 0.4
02/02:00pm 12.1 9.3 11.3 95 0.4 WSW 17 24 9 13 1026.0 1026.3 0.4
02/01:50pm 12.1 8.7 11.2 94 0.5 WSW 20 26 11 14 1026.2 1026.5 0.0
02/01:49pm 12.2 9.0 11.3 94 0.5 WSW 19 26 10 14 1026.2 1026.5 0.0
02/01:37pm 12.5 8.7 11.1 91 0.7 WSW 22 30 12 16 1026.3 1026.6 0.0
02/01:30pm 12.7 8.4 10.6 87 1.1 WSW 24 32 13 17 1026.3 1026.6 0.0
02/01:00pm 13.8 9.3 10.0 78 2.0 W 24 30 13 16 1026.4 1026.7 0.0
02/12:30pm 13.4 9.8 10.4 82 1.6 WSW 20 28 11 15 1026.9 1027.2 0.0
02/12:21pm 13.0 9.4 10.0 82 1.6 W 19 24 10 13 1027.0 1027.3 0.0
02/12:00pm 13.2 9.7 10.2 82 1.6 W 19 24 10 13 1027.2 1027.5 0.0
02/11:55am 13.2 9.8 10.4 83 1.5 W 19 24 10 13 1027.2 1027.5 0.0
02/11:30am 12.9 9.4 10.1 83 1.5 W 19 24 10 13 1027.5 1027.8 0.0
02/11:00am 12.6 9.1 10.1 85 1.3 W 19 24 10 13 1027.6 1027.9 0.0
02/10:47am 12.4 9.4 10.6 89 0.9 WNW 17 22 9 12 1027.4 1027.7 0.0
02/10:30am 12.2 9.2 10.6 90 0.8 W 17 20 9 11 1027.5 1027.8 0.0
02/10:00am 11.5 8.1 10.7 95 0.4 WNW 19 22 10 12 1027.4 1027.7 0.0
02/09:42am 11.2 8.7 11.0 99 0.1 NW 15 19 8 10 1027.3 1027.6 0.0
02/09:30am 10.7 8.0 10.5 99 0.1 NW 15 17 8 9 1027.2 1027.5 0.0
02/09:23am 10.3 7.5 10.1 99 0.1 NW 15 17 8 9 1027.1 1027.4 0.0
02/09:00am 10.0 7.6 9.9 99 0.1 NW 13 15 7 8 1027.0 1027.3 0.2
02/08:39am 9.7 6.8 9.6 99 0.1 NNW 15 17 8 9 1026.8 1027.1 0.2
02/08:30am 9.6 6.7 9.5 99 0.1 NNW 15 19 8 10 1026.8 1027.1 0.2
02/08:10am 9.3 7.1 9.2 99 0.0 NNW 11 13 6 7 1026.7 1027.0 0.2
02/08:00am 9.1 6.8 9.0 99 0.0 NW 11 13 6 7 1026.7 1027.0 0.2
02/07:48am 9.0 6.7 8.9 99 0.0 NW 11 13 6 7 1026.6 1026.9 0.2
02/07:30am 8.9 6.2 8.8 99 0.0 NW 13 15 7 8 1026.3 1026.6 0.2
02/07:00am 8.9 6.2 8.8 99 0.0 WNW 13 17 7 9 1025.9 1026.2 0.2
02/06:46am 8.7 5.5 8.6 99 0.0 WNW 15 17 8 9 1025.8 1026.1 0.2
02/06:30am 8.2 5.3 8.1 99 0.0 W 13 15 7 8 1025.7 1026.0 0.2
02/06:07am 8.8 5.7 8.7 99 0.0 WNW 15 19 8 10 1025.3 1025.6 0.2
02/06:00am 8.9 5.8 8.8 99 0.0 WNW 15 19 8 10 1025.3 1025.6 0.2
02/05:30am 9.1 6.0 9.0 99 0.0 WNW 15 17 8 9 1025.1 1025.4 0.2
02/05:00am 9.7 7.2 9.6 99 0.0 WNW 13 17 7 9 1025.2 1025.5 0.2
02/04:42am 9.7 7.2 9.6 99 0.1 WNW 13 17 7 9 1025.0 1025.3 0.2
02/04:30am 9.8 6.9 9.7 99 0.1 WNW 15 19 8 10 1025.0 1025.3 0.2
02/04:00am 9.8 6.9 9.7 99 0.1 NW 15 17 8 9 1025.0 1025.3 0.2
02/03:57am 9.8 7.3 9.7 99 0.1 NW 13 17 7 9 1025.0 1025.3 0.2
02/03:30am 9.5 6.9 9.4 99 0.0 NW 13 17 7 9 1025.0 1025.3 0.2
02/03:20am 9.6 6.6 9.3 98 0.1 NW 15 17 8 9 1025.0 1025.3 0.2
02/03:00am 9.9 6.6 9.6 98 0.2 WNW 17 19 9 10 1025.1 1025.4 0.2
02/02:30am 9.9 7.0 9.8 99 0.1 WNW 15 19 8 10 1025.1 1025.4 0.2
02/02:17am 9.9 7.0 9.8 99 0.1 WNW 15 20 8 11 1025.1 1025.4 0.2
02/02:00am 10.0 6.4 9.7 98 0.2 WNW 19 24 10 13 1025.0 1025.3 0.2
02/01:37am 10.0 6.1 9.5 97 0.3 WNW 20 24 11 13 1025.1 1025.4 0.0
02/01:30am 9.9 6.2 9.3 96 0.3 WNW 19 22 10 12 1025.1 1025.4 0.0
02/01:00am 9.5 5.7 9.2 98 0.1 WNW 19 22 10 12 1025.1 1025.4 0.0
02/12:30am 9.4 5.6 8.9 97 0.2 WNW 19 22 10 12 1025.0 1025.3 0.0
02/12:00am 10.1 6.2 9.5 96 0.3 WNW 20 24 11 13 1025.1 1025.4 0.0
 
Date/Time
EST
Temp
°C
App
Temp
°C
Dew
Point
°C
Rel
Hum
%
Delta-T
°C
Wind Press
QNH
hPa
Press
MSL
hPa
Rain since
9am
mm
Dir  Spd
km/h
Gust
km/h
Spd
kts
Gust
kts
01/11:30pm 9.5 5.7 9.0 97 0.2 NW 19 24 10 13 1025.1 1025.4 0.0
01/11:00pm 9.4 5.3 8.8 96 0.3 NW 20 26 11 14 1025.1 1025.4 0.0
01/10:30pm 9.9 5.5 9.1 95 0.4 NW 22 26 12 14 1024.8 1025.1 0.0
01/10:00pm 9.7 6.3 9.1 96 0.3 NW 17 20 9 11 1025.0 1025.3 0.0
01/09:30pm 9.7 6.7 9.1 96 0.3 NW 15 19 8 10 1025.1 1025.4 0.0
01/09:00pm 9.7 7.1 9.4 98 0.1 NW 13 15 7 8 1024.7 1025.0 0.0
01/08:30pm 9.7 7.9 9.4 98 0.2 NW 9 13 5 7 1024.8 1025.1 0.0
01/08:00pm 9.7 7.5 9.2 97 0.2 NNW 11 13 6 7 1024.8 1025.1 0.0
01/07:30pm 9.8 7.6 9.3 97 0.2 WNW 11 15 6 8 1024.5 1024.8 0.0
01/07:00pm 9.6 7.3 9.0 96 0.3 NW 11 13 6 7 1024.3 1024.6 0.0
01/06:30pm 9.5 7.1 8.7 95 0.4 NW 11 13 6 7 1023.9 1024.2 0.0
01/06:00pm 10.1 7.0 9.0 93 0.5 WNW 15 17 8 9 1023.6 1023.9 0.0
01/05:30pm 10.7 7.6 9.0 89 0.8 WNW 15 17 8 9 1023.5 1023.8 0.0
01/05:00pm 11.0 7.1 8.6 85 1.2 WNW 19 24 10 13 1023.1 1023.4 0.0
01/04:30pm 11.6 7.1 8.5 81 1.5 W 22 28 12 15 1023.0 1023.3 0.0
01/04:00pm 11.7 9.0 9.1 84 1.3 WSW 13 19 7 10 1023.0 1023.3 0.0
01/03:30pm 11.3 7.4 8.7 84 1.3 WSW 19 22 10 12 1022.9 1023.2 0.0
01/03:00pm 11.3 7.8 8.7 84 1.3 W 17 20 9 11 1022.5 1022.7 0.0
01/02:30pm 10.8 6.4 9.1 89 0.9 WSW 22 30 12 16 1022.6 1022.8 0.0
01/02:00pm 12.1 7.7 7.6 74 2.2 W 20 26 11 14 1022.4 1022.6 0.0
01/01:30pm 12.2 7.4 7.3 72 2.4 W 22 33 12 18 1022.6 1022.8 0.0
01/01:00pm 12.1 7.1 6.6 69 2.6 WSW 22 30 12 16 1022.8 1023.1 0.0
01/12:30pm 11.9 6.9 6.6 70 2.5 SW 22 30 12 16 1022.9 1023.2 0.0
01/12:00pm 11.7 7.1 6.4 70 2.5 WSW 20 30 11 16 1023.3 1023.6 0.0
01/11:30am 11.3 6.6 6.2 71 2.4 WSW 20 28 11 15 1023.4 1023.7 0.0
01/11:00am 10.7 5.9 5.7 71 2.3 WSW 20 30 11 16 1023.5 1023.8 0.0
01/10:30am 9.9 5.4 5.9 76 1.9 WSW 19 24 10 13 1023.2 1023.5 0.0
01/10:00am 8.7 4.4 5.4 80 1.5 WSW 17 20 9 11 1022.9 1023.2 0.0
01/09:30am 7.3 2.9 4.6 83 1.2 WSW 17 22 9 12 1022.6 1022.8 0.0
01/09:00am 5.9 2.1 4.1 88 0.8 WSW 13 17 7 9 1022.3 1022.5 4.6
01/08:30am 5.5 1.3 3.7 88 0.8 WSW 15 19 8 10 1021.8 1022.0 4.6
01/08:00am 5.4 1.2 3.7 89 0.7 WSW 15 20 8 11 1021.1 1021.4 4.6
01/07:30am 5.0 1.6 3.8 92 0.5 WSW 11 15 6 8 1020.8 1021.1 4.6
01/07:00am 5.3 1.1 3.8 90 0.6 WSW 15 19 8 10 1020.4 1020.7 4.6
01/06:30am 6.3 1.4 4.1 86 0.9 WSW 19 24 10 13 1019.8 1020.1 4.6
01/06:00am 5.9 1.4 4.2 89 0.7 WSW 17 20 9 11 1019.2 1019.5 4.6
01/05:30am 6.2 1.8 4.5 89 0.7 WSW 17 24 9 13 1018.9 1019.2 4.6
01/05:00am 6.5 2.9 4.8 89 0.7 WSW 13 17 7 9 1018.4 1018.6 4.6
01/04:30am 7.2 3.3 5.2 87 0.9 WSW 15 20 8 11 1018.1 1018.3 4.6
01/04:00am 8.0 3.4 5.8 86 1.0 WSW 19 24 10 13 1017.7 1017.9 4.6
01/03:30am 8.1 3.9 5.9 86 1.0 WSW 17 20 9 11 1017.4 1017.6 4.6
01/03:00am 8.4 2.2 6.2 86 1.0 SW 28 35 15 19 1017.0 1017.2 4.6
01/02:30am 8.5 1.9 6.0 84 1.1 WSW 30 39 16 21 1016.7 1016.9 4.6
01/02:00am 8.8 1.9 6.3 84 1.2 WSW 32 43 17 23 1016.1 1016.3 4.6
01/01:30am 8.7 1.7 6.2 84 1.2 WSW 32 46 17 25 1015.6 1015.8 4.6
01/01:00am 8.8 1.9 6.3 84 1.2 WSW 32 43 17 23 1015.0 1015.2 4.6
01/12:30am 8.9 1.8 6.2 83 1.2 WSW 33 44 18 24 1014.5 1014.7 4.6
01/12:00am 8.8 1.6 6.1 83 1.2 WSW 33 44 18 24 1014.1 1014.3 4.6
 
Date/Time
EST
Temp
°C
App
Temp
°C
Dew
Point
°C
Rel
Hum
%
Delta-T
°C
Wind Press
QNH
hPa
Press
MSL
hPa
Rain since
9am
mm
Dir  Spd
km/h
Gust
km/h
Spd
kts
Gust
kts
30/11:30pm 8.7 1.7 5.8 82 1.3 WSW 32 41 17 22 1013.6 1013.8 4.6
30/11:00pm 8.3 1.1 5.1 80 1.4 W 32 41 17 22 1013.3 1013.6 4.6
30/10:30pm 8.1 0.3 4.7 79 1.5 W 35 48 19 26 1013.0 1013.3 4.6
30/10:00pm 7.6 0.3 4.6 81 1.3 W 32 43 17 23 1012.6 1012.9 4.6
30/09:30pm 7.3 0.0 4.6 83 1.2 W 32 39 17 21 1012.2 1012.4 4.6
30/09:00pm 7.1 -0.8 4.4 83 1.2 W 35 46 19 25 1011.8 1012.0 4.6
30/08:30pm 6.8 -0.8 4.1 83 1.2 WNW 33 43 18 23 1011.4 1011.6 4.6
30/08:00pm 6.9 -0.4 4.4 84 1.1 WNW 32 41 17 22 1011.0 1011.2 4.6
30/07:30pm 6.3 0.5 4.3 87 0.9 WNW 24 30 13 16 1011.2 1011.4 4.6
30/07:00pm 6.5 0.3 4.3 86 1.0 WNW 26 32 14 17 1011.0 1011.2 4.6
30/06:30pm 6.5 0.6 4.0 84 1.1 WNW 24 30 13 16 1010.9 1011.1 4.6
30/06:00pm 6.4 0.9 4.1 85 1.0 WNW 22 24 12 13 1010.4 1010.6 4.6
30/05:30pm 7.6 1.3 3.8 77 1.6 W 26 35 14 19 1010.0 1010.2 4.6
30/05:00pm 8.1 1.0 3.8 74 1.9 W 30 43 16 23 1009.6 1009.8 4.6
30/04:47pm 8.2 -0.1 4.4 77 1.7 WSW 37 56 20 30 1009.6 1009.8 4.6
30/04:30pm 9.9 1.3 4.5 69 2.4 W 39 52 21 28 1009.1 1009.3 4.6
30/04:00pm 9.3 2.2 5.3 76 1.8 W 32 39 17 21 1008.6 1008.8 4.6
30/03:42pm 9.8 1.4 5.6 75 1.9 W 39 59 21 32 1008.3 1008.5 4.6
30/03:30pm 10.6 4.0 6.0 73 2.1 W 30 43 16 23 1008.2 1008.4 4.6
30/03:00pm 10.7 4.6 6.8 77 1.9 W 28 39 15 21 1008.0 1008.2 4.6
30/02:30pm 9.5 3.3 6.0 79 1.6 W 28 37 15 20 1007.7 1007.9 4.6
30/02:00pm 9.1 2.6 6.4 83 1.3 W 30 43 16 23 1007.7 1007.9 4.6
30/01:30pm 8.8 -0.7 6.9 88 0.9 W 46 69 25 37 1008.0 1008.2 4.4
30/01:25pm 9.1 0.6 6.9 86 1.0 W 41 67 22 36 1008.0 1008.2 4.4
30/01:24pm 9.4 1.5 7.8 90 0.8 W 39 54 21 29 1008.0 1008.2 4.2
30/01:02pm 9.6 3.0 8.4 92 0.6 WNW 33 44 18 24 1007.5 1007.7 3.6
30/01:00pm 9.5 2.8 8.3 92 0.6 WNW 33 44 18 24 1007.5 1007.7 3.6
30/12:40pm 9.5 1.8 7.3 86 1.0 WNW 37 65 20 35 1007.8 1008.0 2.2
30/12:38pm 11.3 3.6 8.7 84 1.3 WNW 39 48 21 26 1007.7 1007.9 0.4
30/12:30pm 12.6 5.2 8.3 75 2.1 NW 37 50 20 27 1007.0 1007.2 0.0
30/12:00pm 12.2 4.6 7.5 73 2.3 NW 37 44 20 24 1007.9 1008.1 0.0
30/11:30am 12.1 3.4 7.6 74 2.2 NNW 43 57 23 31 1008.4 1008.6 0.0
30/11:00am 10.9 2.8 6.8 76 2.0 NNW 39 48 21 26 1009.2 1009.4 0.0
30/10:46am 10.6 3.5 6.4 75 2.0 NNW 33 52 18 28 1009.4 1009.6 0.0
30/10:30am 9.9 2.4 6.3 78 1.7 NNW 35 46 19 25 1009.8 1010.0 0.0
30/10:00am 9.5 1.6 6.0 79 1.6 NNW 37 46 20 25 1009.8 1010.0 0.0
30/09:30am 8.9 1.3 6.0 82 1.3 N 35 44 19 24 1009.9 1010.1 0.0
30/09:00am 8.3 1.0 5.6 83 1.2 N 33 41 18 22 1009.8 1010.0 0.2
30/08:30am 8.0 0.3 5.5 84 1.1 N 35 43 19 23 1010.0 1010.2 0.2
30/08:00am 7.7 0.4 5.5 86 1.0 N 33 41 18 22 1010.1 1010.3 0.2
30/07:30am 7.9 0.6 5.5 85 1.1 N 33 39 18 21 1010.2 1010.4 0.2
30/07:00am 7.8 0.7 5.6 86 1.0 N 32 41 17 22 1010.5 1010.7 0.2
30/06:30am 8.0 1.3 5.6 85 1.1 N 30 39 16 21 1010.6 1010.8 0.2
30/06:00am 8.0 0.9 5.6 85 1.1 N 32 39 17 21 1010.9 1011.1 0.2
30/05:30am 8.3 1.6 5.4 82 1.3 N 30 37 16 20 1011.2 1011.4 0.0
30/05:00am 8.2 1.1 5.5 83 1.2 N 32 39 17 21 1011.5 1011.7 0.0
30/04:30am 8.3 0.9 5.2 81 1.4 N 33 44 18 24 1011.9 1012.1 0.0
30/04:00am 8.4 0.7 5.2 80 1.4 N 35 46 19 25 1012.4 1012.6 0.0
30/03:30am 8.4 1.2 5.2 80 1.4 N 32 41 17 22 1013.1 1013.4 0.0
30/03:00am 8.4 1.3 5.3 81 1.4 N 32 39 17 21 1013.6 1013.8 0.0
30/02:30am 8.5 1.2 5.3 80 1.4 N 33 41 18 22 1014.1 1014.3 0.0
30/02:00am 8.3 0.9 5.1 80 1.4 N 33 41 18 22 1014.3 1014.5 0.0
30/01:30am 8.2 1.0 5.1 81 1.4 N 32 41 17 22 1014.7 1014.9 0.0
30/01:00am 8.4 1.6 5.2 80 1.4 N 30 37 16 20 1015.1 1015.3 0.0
30/12:30am 9.2 2.5 5.4 77 1.7 N 30 37 16 20 1015.7 1015.9 0.0
30/12:00am 9.4 2.0 5.2 75 1.9 N 33 41 18 22 1016.1 1016.3 0.0
 
Date/Time
EST
Temp
°C
App
Temp
°C
Dew
Point
°C
Rel
Hum
%
Delta-T
°C
Wind Press
QNH
hPa
Press
MSL
hPa
Rain since
9am
mm
Dir  Spd
km/h
Gust
km/h
Spd
kts
Gust
kts
29/11:30pm 9.5 2.4 5.3 75 1.9 N 32 43 17 23 1016.5 1016.7 0.0
29/11:00pm 9.6 2.9 5.4 75 1.9 N 30 37 16 20 1017.0 1017.2 0.0
29/10:30pm 9.7 2.6 5.3 74 2.0 N 32 43 17 23 1017.3 1017.5 0.0
29/10:00pm 9.8 3.4 5.4 74 2.0 NNE 28 33 15 18 1017.8 1018.0 0.0
29/09:30pm 9.8 4.2 5.4 74 2.0 N 24 32 13 17 1018.1 1018.3 0.0
29/09:00pm 10.0 3.2 5.0 71 2.3 N 30 37 16 20 1018.4 1018.6 0.0
29/08:30pm 9.7 4.0 4.9 72 2.2 N 24 30 13 16 1018.7 1018.9 0.0
29/08:00pm 9.7 3.6 4.9 72 2.2 NNE 26 32 14 17 1018.9 1019.2 0.0

Other Formats:

Comma delimited format used in spreadsheet applications
http://www.bom.gov.au/fwo/IDV60801/IDV60801.95839.axf

JavaScript Object Notation format (JSON) in row-major order
http://www.bom.gov.au/fwo/IDV60801/IDV60801.95839.json